MiSS Kori — WDF5911 — position and weather

sailwx.info

Track history (hours):
 
Tides and Currents Weather Stations Pressure Air Temp Water Temp Dewpoint Dewpoint Depression Visibility Wind Speed Wind Dir Waves Ship Positions

MiSS Kori

Owner: Crosby Marine Transportation LLC, Golden Meadow, LA. More information available from US FCC via Universal Licensing System and Coast Guard Vessel Documentation Center.

Last reported at 2018-Apr-23 13:07 UTC. Time now 2018-Apr-23 13:38 UTC.
Position N 29°44' W 095°09'.

Length 18 m; draft 2.5 m.

Type: Towing. MMSI: 367468590.

Date/timePositionNaut miles runAvg speedWind from/ knotsBaromVisibWave heightAir tempDewpointWater temp
2018-Apr-23 13:07N 29°44' W 095°09'0 0.6
2018-Apr-23 12:54N 29°44' W 095°09'2 5.1
2018-Apr-23 12:28N 29°44' W 095°07'3 4.8
2018-Apr-23 11:49N 29°47' W 095°05'0 0.9
2018-Apr-23 11:25N 29°46' W 095°05'4 5.5
2018-Apr-23 10:39N 29°44' W 095°09'1 3.5
2018-Apr-23 10:25N 29°44' W 095°10'0 0.0
2018-Apr-23 09:57N 29°44' W 095°10'0 0.1
2018-Apr-23 09:30N 29°44' W 095°10'0 0.2
2018-Apr-23 07:38N 29°44' W 095°10'0 0.0
2018-Apr-23 07:29N 29°44' W 095°10'1 0.1
2018-Apr-22 23:09N 29°44' W 095°09'2 5.4
2018-Apr-22 22:48N 29°44' W 095°07'3 2.5
2018-Apr-22 21:34N 29°47' W 095°05'0 1.6
2018-Apr-22 21:29N 29°47' W 095°05'3 5.2
2018-Apr-22 21:00N 29°45' W 095°06'3 0.4
2018-Apr-22 14:20N 29°44' W 095°10'0 0.1
2018-Apr-22 13:55N 29°44' W 095°10'2 4.4
2018-Apr-22 13:22N 29°44' W 095°07'3 5.0
2018-Apr-22 12:46N 29°47' W 095°05'0 0.1
2018-Apr-22 12:30N 29°47' W 095°05'3 2.1
2018-Apr-22 11:08N 29°44' W 095°07'2 6.1
2018-Apr-22 10:48N 29°44' W 095°09'0 0.0
2018-Apr-21 17:41N 29°44' W 095°09'4 1.6
2018-Apr-21 14:52N 29°47' W 095°05'3 5.1
2018-Apr-21 14:21N 29°45' W 095°06'3 0.4
2018-Apr-21 06:46N 29°44' W 095°10'0 0.0
2018-Apr-21 06:15N 29°44' W 095°10'0 0.0
2018-Apr-21 05:57N 29°44' W 095°10'0 0.0
2018-Apr-21 03:15N 29°44' W 095°10'1 0.1
2018-Apr-20 22:54N 29°44' W 095°09'2 5.9
2018-Apr-20 22:30N 29°45' W 095°06'2 2.0
2018-Apr-20 21:26N 29°46' W 095°05'2 5.4
2018-Apr-20 20:59N 29°44' W 095°06'2 0.6
2018-Apr-20 17:26N 29°44' W 095°09'4 2.1
2018-Apr-20 15:38N 29°46' W 095°05'1 5.6
2018-Apr-20 15:30N 29°45' W 095°06'4 0.6
2018-Apr-20 09:50N 29°44' W 095°10'0 0.0
2018-Apr-20 02:09N 29°44' W 095°10'0 0.3
2018-Apr-20 01:45N 29°44' W 095°10'5 2.5
2018-Apr-19 23:46N 29°47' W 095°05'1 3.8
2018-Apr-19 23:30N 29°46' W 095°05'3 5.7
2018-Apr-19 23:00N 29°44' W 095°08'1 0.0
2018-Apr-18 14:44N 29°44' W 095°09'2 6.4
2018-Apr-18 14:28N 29°44' W 095°07'3 4.1
2018-Apr-18 13:47N 29°47' W 095°05'1 1.5
2018-Apr-18 12:55N 29°46' W 095°06'4 0.7
2018-Apr-18 07:46N 29°44' W 095°10'0 0.0
2018-Apr-18 05:02N 29°44' W 095°10'0 0.0
2018-Apr-18 04:59N 29°44' W 095°10'0 0.0
2018-Apr-18 04:21N 29°44' W 095°09'0 0.1
2018-Apr-18 03:59N 29°44' W 095°10'0 0.1
2018-Apr-18 03:23N 29°44' W 095°10'2 4.1
2018-Apr-18 02:59N 29°44' W 095°08'3 6.3
2018-Apr-18 02:29N 29°46' W 095°05'1 1.8
2018-Apr-18 02:00N 29°47' W 095°05'0 0.0
2018-Apr-18 01:29N 29°47' W 095°05'1 3.1
2018-Apr-18 01:00N 29°46' W 095°05'4 2.2
2018-Apr-17 23:13N 29°44' W 095°10'1 0.1
2018-Apr-17 15:35N 29°44' W 095°09'1 5.8
2018-Apr-17 15:22N 29°44' W 095°07'4 3.6
2018-Apr-17 14:22N 29°47' W 095°05'1 3.3
2018-Apr-17 13:59N 29°46' W 095°05'3 5.3
2018-Apr-17 13:30N 29°44' W 095°07'2 3.7
2018-Apr-17 13:00N 29°44' W 095°10'0 0.0
2018-Apr-17 12:28N 29°44' W 095°10'0 0.0
2018-Apr-17 12:00N 29°44' W 095°10'0 0.0
2018-Apr-17 11:28N 29°44' W 095°10'0 0.0
2018-Apr-17 10:59N 29°44' W 095°10'0 0.0
2018-Apr-17 10:30N 29°44' W 095°10'0 0.2
2018-Apr-17 09:57N 29°44' W 095°10'0 0.0
2018-Apr-17 09:28N 29°44' W 095°10'0 0.1
2018-Apr-17 09:00N 29°44' W 095°10'0 0.1
2018-Apr-17 08:30N 29°44' W 095°10'0 0.2
2018-Apr-17 07:58N 29°44' W 095°10'0 0.0
2018-Apr-17 07:26N 29°44' W 095°10'0 0.0
2018-Apr-17 06:57N 29°44' W 095°10'0 0.0
2018-Apr-17 06:30N 29°44' W 095°10'0 0.1
2018-Apr-17 05:56N 29°44' W 095°10'0 0.2
2018-Apr-17 05:30N 29°44' W 095°10'0 0.0
2018-Apr-17 05:00N 29°44' W 095°10'0 0.0
2018-Apr-17 04:14N 29°44' W 095°10'5 1.4
2018-Apr-17 00:39N 29°47' W 095°05'0 0.8
2018-Apr-17 00:22N 29°47' W 095°05'3 5.6
2018-Apr-16 23:55N 29°45' W 095°06'3 5.1
2018-Apr-16 23:23N 29°44' W 095°10'0 0.1
2018-Apr-16 22:59N 29°44' W 095°10'0 0.0
2018-Apr-16 20:42N 29°44' W 095°10'0 0.0
2018-Apr-16 11:10N 29°44' W 095°10'0 0.0
2018-Apr-16 10:24N 29°44' W 095°10'2 3.7
2018-Apr-16 09:51N 29°44' W 095°07'1 0.4
2018-Apr-16 08:12N 29°44' W 095°07'1 5.4
2018-Apr-16 07:57N 29°44' W 095°08'1 0.1
2018-Apr-15 19:57N 29°44' W 095°09'5 3.3
2018-Apr-15 18:34N 29°47' W 095°05'0 2.4
2018-Apr-15 18:27N 29°46' W 095°05'3 4.5
2018-Apr-15 17:53N 29°44' W 095°06'3 0.8
2018-Apr-15 14:26N 29°44' W 095°10'1 0.1
2018-Apr-15 07:31N 29°44' W 095°09'2 5.7
2018-Apr-15 07:12N 29°44' W 095°07'3 2.7
2018-Apr-15 06:10N 29°47' W 095°05'1 3.8
2018-Apr-15 05:54N 29°46' W 095°05'4 5.2
2018-Apr-15 05:13N 29°44' W 095°09'0 0.0
2018-Apr-14 19:28N 29°44' W 095°09'3 5.7
2018-Apr-14 18:56N 29°45' W 095°06'2 3.5
2018-Apr-14 18:25N 29°47' W 095°05'0 0.0
2018-Apr-14 17:53N 29°47' W 095°05'1 2.3
2018-Apr-14 17:30N 29°46' W 095°05'2 4.6
2018-Apr-14 17:00N 29°44' W 095°07'2 0.2
2018-Apr-14 07:07N 29°46' W 095°05'4 0.4
2018-Apr-13 22:20N 29°44' W 095°09'4 2.5
2018-Apr-13 20:41N 29°46' W 095°05'2 6.3
2018-Apr-13 20:22N 29°45' W 095°06'2 6.1
2018-Apr-13 20:00N 29°44' W 095°09'0 0.1
2018-Apr-13 17:48N 29°44' W 095°09'2 7.3
2018-Apr-13 17:29N 29°45' W 095°06'1 0.4
2018-Apr-13 15:36N 29°45' W 095°06'1 7.9
2018-Apr-13 15:30N 29°45' W 095°06'3 2.0
2018-Apr-13 14:06N 29°44' W 095°10'  
Track history (hours):
 
Tides and Currents Weather Stations Pressure Air Temp Water Temp Dewpoint Dewpoint Depression Visibility Wind Speed Wind Dir Waves Ship Positions

MiSS Kori

Owner: Crosby Marine Transportation LLC, Golden Meadow, LA. More information available from US FCC via Universal Licensing System and Coast Guard Vessel Documentation Center.

Last reported at 2018-Apr-23 13:07 UTC. Time now 2018-Apr-23 13:38 UTC.
Position N 29°44' W 095°09'.

Length 18 m; draft 2.5 m.

Type: Towing. MMSI: 367468590.

Date/timePositionNaut miles runAvg speedWind from/ knotsBaromVisibWave heightAir tempDewpointWater temp
2018-Apr-23 13:07N 29°44' W 095°09'0 0.6
2018-Apr-23 12:54N 29°44' W 095°09'2 5.1
2018-Apr-23 12:28N 29°44' W 095°07'3 4.8
2018-Apr-23 11:49N 29°47' W 095°05'0 0.9
2018-Apr-23 11:25N 29°46' W 095°05'4 5.5
2018-Apr-23 10:39N 29°44' W 095°09'1 3.5
2018-Apr-23 10:25N 29°44' W 095°10'0 0.0
2018-Apr-23 09:57N 29°44' W 095°10'0 0.1
2018-Apr-23 09:30N 29°44' W 095°10'0 0.2
2018-Apr-23 07:38N 29°44' W 095°10'0 0.0
2018-Apr-23 07:29N 29°44' W 095°10'1 0.1
2018-Apr-22 23:09N 29°44' W 095°09'2 5.4
2018-Apr-22 22:48N 29°44' W 095°07'3 2.5
2018-Apr-22 21:34N 29°47' W 095°05'0 1.6
2018-Apr-22 21:29N 29°47' W 095°05'3 5.2
2018-Apr-22 21:00N 29°45' W 095°06'3 0.4
2018-Apr-22 14:20N 29°44' W 095°10'0 0.1
2018-Apr-22 13:55N 29°44' W 095°10'2 4.4
2018-Apr-22 13:22N 29°44' W 095°07'3 5.0
2018-Apr-22 12:46N 29°47' W 095°05'0 0.1
2018-Apr-22 12:30N 29°47' W 095°05'3 2.1
2018-Apr-22 11:08N 29°44' W 095°07'2 6.1
2018-Apr-22 10:48N 29°44' W 095°09'0 0.0
2018-Apr-21 17:41N 29°44' W 095°09'4 1.6
2018-Apr-21 14:52N 29°47' W 095°05'3 5.1
2018-Apr-21 14:21N 29°45' W 095°06'3 0.4
2018-Apr-21 06:46N 29°44' W 095°10'0 0.0
2018-Apr-21 06:15N 29°44' W 095°10'0 0.0
2018-Apr-21 05:57N 29°44' W 095°10'0 0.0
2018-Apr-21 03:15N 29°44' W 095°10'1 0.1
2018-Apr-20 22:54N 29°44' W 095°09'2 5.9
2018-Apr-20 22:30N 29°45' W 095°06'2 2.0
2018-Apr-20 21:26N 29°46' W 095°05'2 5.4
2018-Apr-20 20:59N 29°44' W 095°06'2 0.6
2018-Apr-20 17:26N 29°44' W 095°09'4 2.1
2018-Apr-20 15:38N 29°46' W 095°05'1 5.6
2018-Apr-20 15:30N 29°45' W 095°06'4 0.6
2018-Apr-20 09:50N 29°44' W 095°10'0 0.0
2018-Apr-20 02:09N 29°44' W 095°10'0 0.3
2018-Apr-20 01:45N 29°44' W 095°10'5 2.5
2018-Apr-19 23:46N 29°47' W 095°05'1 3.8
2018-Apr-19 23:30N 29°46' W 095°05'3 5.7
2018-Apr-19 23:00N 29°44' W 095°08'1 0.0
2018-Apr-18 14:44N 29°44' W 095°09'2 6.4
2018-Apr-18 14:28N 29°44' W 095°07'3 4.1
2018-Apr-18 13:47N 29°47' W 095°05'1 1.5
2018-Apr-18 12:55N 29°46' W 095°06'4 0.7
2018-Apr-18 07:46N 29°44' W 095°10'0 0.0
2018-Apr-18 05:02N 29°44' W 095°10'0 0.0
2018-Apr-18 04:59N 29°44' W 095°10'0 0.0
2018-Apr-18 04:21N 29°44' W 095°09'0 0.1
2018-Apr-18 03:59N 29°44' W 095°10'0 0.1
2018-Apr-18 03:23N 29°44' W 095°10'2 4.1
2018-Apr-18 02:59N 29°44' W 095°08'3 6.3
2018-Apr-18 02:29N 29°46' W 095°05'1 1.8
2018-Apr-18 02:00N 29°47' W 095°05'0 0.0
2018-Apr-18 01:29N 29°47' W 095°05'1 3.1
2018-Apr-18 01:00N 29°46' W 095°05'4 2.2
2018-Apr-17 23:13N 29°44' W 095°10'1 0.1
2018-Apr-17 15:35N 29°44' W 095°09'1 5.8
2018-Apr-17 15:22N 29°44' W 095°07'4 3.6
2018-Apr-17 14:22N 29°47' W 095°05'1 3.3
2018-Apr-17 13:59N 29°46' W 095°05'3 5.3
2018-Apr-17 13:30N 29°44' W 095°07'2 3.7
2018-Apr-17 13:00N 29°44' W 095°10'0 0.0
2018-Apr-17 12:28N 29°44' W 095°10'0 0.0
2018-Apr-17 12:00N 29°44' W 095°10'0 0.0
2018-Apr-17 11:28N 29°44' W 095°10'0 0.0
2018-Apr-17 10:59N 29°44' W 095°10'0 0.0
2018-Apr-17 10:30N 29°44' W 095°10'0 0.2
2018-Apr-17 09:57N 29°44' W 095°10'0 0.0
2018-Apr-17 09:28N 29°44' W 095°10'0 0.1
2018-Apr-17 09:00N 29°44' W 095°10'0 0.1
2018-Apr-17 08:30N 29°44' W 095°10'0 0.2
2018-Apr-17 07:58N 29°44' W 095°10'0 0.0
2018-Apr-17 07:26N 29°44' W 095°10'0 0.0
2018-Apr-17 06:57N 29°44' W 095°10'0 0.0
2018-Apr-17 06:30N 29°44' W 095°10'0 0.1
2018-Apr-17 05:56N 29°44' W 095°10'0 0.2
2018-Apr-17 05:30N 29°44' W 095°10'0 0.0
2018-Apr-17 05:00N 29°44' W 095°10'0 0.0
2018-Apr-17 04:14N 29°44' W 095°10'5 1.4
2018-Apr-17 00:39N 29°47' W 095°05'0 0.8
2018-Apr-17 00:22N 29°47' W 095°05'3 5.6
2018-Apr-16 23:55N 29°45' W 095°06'3 5.1
2018-Apr-16 23:23N 29°44' W 095°10'0 0.1
2018-Apr-16 22:59N 29°44' W 095°10'0 0.0
2018-Apr-16 20:42N 29°44' W 095°10'0 0.0
2018-Apr-16 11:10N 29°44' W 095°10'0 0.0
2018-Apr-16 10:24N 29°44' W 095°10'2 3.7
2018-Apr-16 09:51N 29°44' W 095°07'1 0.4
2018-Apr-16 08:12N 29°44' W 095°07'1 5.4
2018-Apr-16 07:57N 29°44' W 095°08'1 0.1
2018-Apr-15 19:57N 29°44' W 095°09'5 3.3
2018-Apr-15 18:34N 29°47' W 095°05'0 2.4
2018-Apr-15 18:27N 29°46' W 095°05'3 4.5
2018-Apr-15 17:53N 29°44' W 095°06'3 0.8
2018-Apr-15 14:26N 29°44' W 095°10'1 0.1
2018-Apr-15 07:31N 29°44' W 095°09'2 5.7
2018-Apr-15 07:12N 29°44' W 095°07'3 2.7
2018-Apr-15 06:10N 29°47' W 095°05'1 3.8
2018-Apr-15 05:54N 29°46' W 095°05'4 5.2
2018-Apr-15 05:13N 29°44' W 095°09'0 0.0
2018-Apr-14 19:28N 29°44' W 095°09'3 5.7
2018-Apr-14 18:56N 29°45' W 095°06'2 3.5
2018-Apr-14 18:25N 29°47' W 095°05'0 0.0
2018-Apr-14 17:53N 29°47' W 095°05'1 2.3
2018-Apr-14 17:30N 29°46' W 095°05'2 4.6
2018-Apr-14 17:00N 29°44' W 095°07'2 0.2
2018-Apr-14 07:07N 29°46' W 095°05'4 0.4
2018-Apr-13 22:20N 29°44' W 095°09'4 2.5
2018-Apr-13 20:41N 29°46' W 095°05'2 6.3
2018-Apr-13 20:22N 29°45' W 095°06'2 6.1
2018-Apr-13 20:00N 29°44' W 095°09'0 0.1
2018-Apr-13 17:48N 29°44' W 095°09'2 7.3
2018-Apr-13 17:29N 29°45' W 095°06'1 0.4
2018-Apr-13 15:36N 29°45' W 095°06'1 7.9
2018-Apr-13 15:30N 29°45' W 095°06'3 2.0
2018-Apr-13 14:06N 29°44' W 095°10'  

Dump ship's entire track history